Time;durP1;ratioP1;P1;durP2;ratioP2;P2;SDS_P1;SDS_P2;PMS_P1;PMS_P2;Temp;Humidity;BMP_temperature;BMP_pressure;BME280_temperature;BME280_humidity;BME280_pressure;Samples;Min_cycle;Max_cycle;Signal;HPM_P1;HPM_P2
2021/03/18 00:01:29;;;;;;;19.92;14.10;;;2.20;91.90;;;;;;4937257;29;20079;-88
2021/03/18 00:03:57;;;;;;;21.13;15.50;;;2.10;91.90;;;;;;4935931;29;20055;-88
2021/03/18 00:06:23;;;;;;;27.20;14.80;;;2.10;92.00;;;;;;4935930;29;20034;-88
2021/03/18 00:08:49;;;;;;;24.88;16.05;;;2.10;92.00;;;;;;4936058;29;20043;-88
2021/03/18 00:11:19;;;;;;;29.17;16.85;;;2.10;91.90;;;;;;4935757;29;20027;-88
2021/03/18 00:13:46;;;;;;;25.90;17.60;;;2.10;92.00;;;;;;4935814;29;20083;-88
2021/03/18 00:16:12;;;;;;;23.20;15.18;;;2.10;92.20;;;;;;4937045;29;20471;-88
2021/03/18 00:18:50;;;;;;;24.90;16.45;;;2.10;92.10;;;;;;4937193;29;20056;-89
2021/03/18 00:21:16;;;;;;;27.90;18.77;;;2.10;92.20;;;;;;4935710;29;20031;-88
2021/03/18 00:23:42;;;;;;;24.88;15.40;;;2.10;92.30;;;;;;4935872;29;20032;-88
2021/03/18 00:26:09;;;;;;;32.72;18.63;;;2.10;92.10;;;;;;4935710;29;20052;-88
2021/03/18 00:28:35;;;;;;;26.60;15.68;;;2.10;92.30;;;;;;4935677;29;20032;-88
2021/03/18 00:31:03;;;;;;;29.52;16.98;;;2.10;92.10;;;;;;4935436;29;20035;-88
2021/03/18 00:33:29;;;;;;;27.40;17.30;;;2.10;92.20;;;;;;4935135;29;20039;-88
2021/03/18 00:35:55;;;;;;;21.67;15.32;;;2.10;92.20;;;;;;4935588;29;20032;-88
2021/03/18 00:38:22;;;;;;;22.88;15.02;;;2.10;92.20;;;;;;4935555;29;20115;-88
2021/03/18 00:40:57;;;;;;;28.45;16.77;;;2.10;92.20;;;;;;4935247;29;20056;-88
2021/03/18 00:43:23;;;;;;;20.27;15.57;;;2.10;92.40;;;;;;4935457;29;20032;-89
2021/03/18 00:45:51;;;;;;;25.27;17.42;;;2.10;92.50;;;;;;4935698;29;20375;-88
2021/03/18 00:48:19;;;;;;;29.17;16.27;;;2.10;92.20;;;;;;4935183;29;20115;-87
2021/03/18 00:50:53;;;;;;;27.30;16.80;;;2.10;92.30;;;;;;4935166;29;20034;-88
2021/03/18 00:53:24;;;;;;;31.23;16.52;;;2.10;92.30;;;;;;4936015;29;20439;-88
2021/03/18 00:55:51;;;;;;;28.08;16.10;;;2.10;92.30;;;;;;4935639;29;20051;-88
2021/03/18 00:58:18;;;;;;;23.10;15.27;;;2.00;92.30;;;;;;4935447;29;20080;-88
2021/03/18 01:00:49;;;;;;;21.38;13.63;;;2.10;92.30;;;;;;4935511;29;20382;-88
2021/03/18 01:03:16;;;;;;;22.10;15.65;;;2.10;92.30;;;;;;4935126;29;20035;-87
2021/03/18 01:05:51;;;;;;;30.45;16.35;;;2.20;92.30;;;;;;4936539;29;20039;-88
2021/03/18 01:08:19;;;;;;;24.20;16.33;;;2.20;92.30;;;;;;4935728;29;20024;-87
2021/03/18 01:11:15;;;;;;;25.60;17.55;;;2.20;92.20;;;;;;4935300;29;20027;-88
2021/03/18 01:13:44;;;;;;;26.70;16.90;;;2.20;92.30;;;;;;4934998;29;20039;-88
2021/03/18 01:16:33;;;;;;;24.45;14.57;;;2.10;92.20;;;;;;4951061;29;20028;-88
2021/03/18 01:19:05;;;;;;;25.83;17.65;;;2.20;92.30;;;;;;4935604;29;20095;-88
2021/03/18 01:21:34;;;;;;;22.85;14.10;;;2.20;92.70;;;;;;4935251;29;20079;-88
2021/03/18 01:24:02;;;;;;;31.58;17.95;;;2.30;92.30;;;;;;4934913;29;20039;-88
2021/03/18 01:26:28;;;;;;;29.25;17.92;;;2.30;92.10;;;;;;4951594;28;20114;-88
2021/03/18 01:28:53;;;;;;;29.23;18.23;;;2.20;92.10;;;;;;4951015;29;20058;-88
2021/03/18 01:31:19;;;;;;;35.58;18.38;;;2.20;92.00;;;;;;4936349;29;20082;-89
2021/03/18 01:33:46;;;;;;;26.65;16.88;;;2.20;92.20;;;;;;4935001;29;20050;-88
2021/03/18 01:36:12;;;;;;;31.05;18.15;;;2.10;92.10;;;;;;4936381;29;20106;-88
2021/03/18 01:38:40;;;;;;;30.17;19.80;;;2.10;92.10;;;;;;4935008;29;20024;-88
2021/03/18 01:41:06;;;;;;;26.60;18.02;;;2.10;92.10;;;;;;4934954;29;20078;-88
2021/03/18 01:43:32;;;;;;;42.88;22.83;;;2.10;92.30;;;;;;4935665;29;20031;-88
2021/03/18 01:45:58;;;;;;;35.03;21.13;;;2.10;92.40;;;;;;4938449;29;20105;-88
2021/03/18 01:48:24;;;;;;;34.00;20.38;;;2.00;92.60;;;;;;4938589;29;20032;-88
2021/03/18 01:50:50;;;;;;;30.35;21.25;;;2.00;92.60;;;;;;4954365;29;20502;-88
2021/03/18 01:53:19;;;;;;;35.47;19.80;;;2.00;92.60;;;;;;4938362;29;20126;-88
2021/03/18 01:55:47;;;;;;;31.25;20.67;;;2.00;92.50;;;;;;4939329;29;20360;-88
2021/03/18 01:58:13;;;;;;;33.35;21.63;;;2.00;92.50;;;;;;4939550;29;20035;-88
2021/03/18 02:00:41;;;;;;;40.60;21.05;;;2.00;92.70;;;;;;4939415;29;20027;-88
2021/03/18 02:03:06;;;;;;;32.40;22.77;;;2.00;92.60;;;;;;4954271;29;20079;-88
2021/03/18 02:05:33;;;;;;;32.17;20.50;;;2.00;92.70;;;;;;4939193;29;20031;-88
2021/03/18 02:08:00;;;;;;;27.20;18.55;;;2.00;92.60;;;;;;4937895;29;20126;-88
2021/03/18 02:10:31;;;;;;;27.75;21.42;;;2.10;92.50;;;;;;4938150;29;20027;-88
2021/03/18 02:12:58;;;;;;;35.10;20.55;;;2.00;92.60;;;;;;4939179;29;20035;-88
2021/03/18 02:15:30;;;;;;;29.77;21.00;;;2.00;92.50;;;;;;4937907;29;20028;-88
2021/03/18 02:18:24;;;;;;;30.55;20.52;;;2.10;92.50;;;;;;4953728;28;20052;-88
2021/03/18 02:21:23;;;;;;;29.30;20.55;;;2.10;92.50;;;;;;4939087;29;20023;-88
2021/03/18 02:24:10;;;;;;;30.77;20.42;;;2.10;92.50;;;;;;4953819;28;20419;-88
2021/03/18 02:26:57;;;;;;;23.70;17.85;;;2.00;92.40;;;;;;4938796;29;20063;-88
2021/03/18 02:30:00;;;;;;;31.83;20.45;;;2.10;92.30;;;;;;4939213;29;20107;-88
2021/03/18 02:32:48;;;;;;;36.22;21.30;;;2.10;92.30;;;;;;4953646;29;20040;-88
2021/03/18 02:35:27;;;;;;;31.75;21.60;;;2.10;92.40;;;;;;4953802;29;20047;-89
2021/03/18 02:38:01;;;;;;;37.60;24.77;;;2.00;92.30;;;;;;4937799;29;20086;-88
2021/03/18 02:40:30;;;;;;;37.25;25.88;;;2.00;92.60;;;;;;4943274;29;20059;-88
2021/03/18 02:42:59;;;;;;;42.50;26.23;;;2.00;92.60;;;;;;4902954;29;20028;-88
2021/03/18 02:45:30;;;;;;;41.45;25.90;;;2.10;92.50;;;;;;4902351;29;20039;-88
2021/03/18 02:47:58;;;;;;;39.10;26.08;;;2.00;92.50;;;;;;4902912;29;20459;-88
2021/03/18 02:50:26;;;;;;;40.00;26.02;;;2.00;92.40;;;;;;4902542;29;20119;-88
2021/03/18 02:52:54;;;;;;;46.65;25.50;;;2.00;92.50;;;;;;4902376;29;20036;-89
2021/03/18 02:55:22;;;;;;;30.83;23.15;;;2.00;92.50;;;;;;4901532;29;20111;-88
2021/03/18 02:57:50;;;;;;;45.22;25.05;;;2.10;92.50;;;;;;4902243;29;20133;-88
2021/03/18 03:00:18;;;;;;;47.42;28.15;;;2.10;92.40;;;;;;4902586;29;20086;-88
2021/03/18 03:02:44;;;;;;;40.25;23.65;;;2.10;92.30;;;;;;4902207;29;20032;-88
2021/03/18 03:05:10;;;;;;;36.53;25.75;;;2.10;92.30;;;;;;4902342;29;20084;-88
2021/03/18 03:07:38;;;;;;;40.60;26.17;;;2.10;92.40;;;;;;4902382;29;20028;-88
2021/03/18 03:10:07;;;;;;;56.25;29.35;;;2.10;92.30;;;;;;4902109;29;20032;-88
2021/03/18 03:12:34;;;;;;;55.67;31.65;;;2.10;92.30;;;;;;4902018;29;20484;-88
2021/03/18 03:15:00;;;;;;;52.38;31.08;;;2.10;92.30;;;;;;4902166;29;20067;-88
2021/03/18 03:17:28;;;;;;;48.75;31.30;;;2.10;92.50;;;;;;4919044;29;20456;-88
2021/03/18 03:19:58;;;;;;;48.83;31.95;;;2.10;92.40;;;;;;4902167;29;20123;-89
2021/03/18 03:22:24;;;;;;;62.17;32.03;;;2.00;92.40;;;;;;4901830;29;20032;-88
2021/03/18 03:24:52;;;;;;;45.03;27.38;;;2.00;92.50;;;;;;4901684;29;20121;-88
2021/03/18 03:27:18;;;;;;;57.42;31.55;;;2.00;92.50;;;;;;4919409;29;20067;-88
2021/03/18 03:29:45;;;;;;;42.75;28.65;;;2.00;92.40;;;;;;4902020;29;20032;-88
2021/03/18 03:32:12;;;;;;;51.33;29.27;;;2.00;92.60;;;;;;4918686;29;20060;-88
2021/03/18 03:34:40;;;;;;;53.20;31.02;;;2.00;92.50;;;;;;4901783;29;20032;-88
2021/03/18 03:37:08;;;;;;;59.58;28.10;;;2.00;92.50;;;;;;4901984;29;20123;-88
2021/03/18 03:39:35;;;;;;;59.83;28.58;;;2.00;92.40;;;;;;4918932;29;20099;-88
2021/03/18 03:42:04;;;;;;;51.22;27.23;;;2.00;92.40;;;;;;4937675;29;20052;-91
2021/03/18 03:44:30;;;;;;;69.03;30.60;;;2.00;92.40;;;;;;4920710;29;20367;-88
2021/03/18 03:46:56;;;;;;;64.38;31.58;;;2.00;92.40;;;;;;4920531;29;20064;-88
2021/03/18 03:49:22;;;;;;;51.22;30.80;;;2.00;92.20;;;;;;4937536;29;20028;-88
2021/03/18 03:52:12;;;;;;;60.10;30.35;;;2.10;92.50;;;;;;4920226;29;20135;-88
2021/03/18 03:54:42;;;;;;;58.90;30.90;;;2.00;92.50;;;;;;4921060;29;20378;-88
2021/03/18 03:57:23;;;;;;;63.80;30.88;;;2.00;92.50;;;;;;4920529;29;20023;-88
2021/03/18 03:59:52;;;;;;;56.72;27.20;;;2.00;92.60;;;;;;4920402;29;20036;-88
2021/03/18 04:02:18;;;;;;;52.22;26.48;;;2.00;92.50;;;;;;4920011;29;20032;-88
2021/03/18 04:04:49;;;;;;;65.82;29.17;;;2.00;92.30;;;;;;4920218;29;20031;-88
2021/03/18 04:07:29;;;;;;;70.32;28.65;;;2.00;92.40;;;;;;4920067;29;20085;-88
2021/03/18 04:09:59;;;;;;;72.10;31.08;;;2.00;92.40;;;;;;4919956;29;20028;-88
2021/03/18 04:12:30;;;;;;;79.63;32.50;;;2.00;92.50;;;;;;4919622;29;20040;-88
2021/03/18 04:15:00;;;;;;;63.65;28.95;;;2.00;92.60;;;;;;4919907;29;20383;-88
2021/03/18 04:17:27;;;;;;;91.88;31.85;;;2.00;92.40;;;;;;4921049;29;20028;-88
2021/03/18 04:19:57;;;;;;;58.83;28.77;;;2.00;92.50;;;;;;4937119;29;20479;-88
2021/03/18 04:22:28;;;;;;;58.22;28.65;;;2.00;92.40;;;;;;4920080;29;20038;-88
2021/03/18 04:24:55;;;;;;;72.15;27.95;;;2.00;92.40;;;;;;4919712;29;20546;-88
2021/03/18 04:27:21;;;;;;;59.92;27.25;;;2.00;92.30;;;;;;4919567;29;20032;-88
2021/03/18 04:29:48;;;;;;;50.95;23.02;;;2.00;92.30;;;;;;4920332;29;20383;-89
2021/03/18 04:32:15;;;;;;;50.83;26.55;;;2.00;92.30;;;;;;4936766;29;20119;-88
2021/03/18 04:34:43;;;;;;;63.08;27.13;;;2.00;92.20;;;;;;4919343;29;20039;-88
2021/03/18 04:37:10;;;;;;;51.47;25.77;;;2.00;92.10;;;;;;4919830;29;20028;-88
2021/03/18 04:39:37;;;;;;;79.03;31.60;;;1.90;92.30;;;;;;4919667;29;20435;-88
2021/03/18 04:42:07;;;;;;;62.05;28.50;;;1.90;92.50;;;;;;4919717;29;20087;-88
2021/03/18 04:44:34;;;;;;;55.45;25.75;;;1.90;92.60;;;;;;4936939;29;20035;-88
2021/03/18 04:47:01;;;;;;;54.10;28.33;;;2.00;92.60;;;;;;4919867;29;20038;-89
2021/03/18 04:49:30;;;;;;;46.70;25.80;;;1.90;92.60;;;;;;4936885;29;20032;-88
2021/03/18 04:51:56;;;;;;;52.78;24.15;;;1.90;92.50;;;;;;4919369;29;20043;-88
2021/03/18 04:54:23;;;;;;;77.50;28.85;;;2.00;92.20;;;;;;4919734;29;20023;-89
2021/03/18 04:56:50;;;;;;;59.92;26.25;;;1.90;92.40;;;;;;4919664;29;20143;-89
2021/03/18 04:59:17;;;;;;;64.80;28.13;;;1.90;92.40;;;;;;4919733;29;20423;-89
2021/03/18 05:01:47;;;;;;;59.80;24.40;;;1.90;92.50;;;;;;4936571;29;20024;-89
2021/03/18 05:04:15;;;;;;;65.05;23.10;;;1.90;92.50;;;;;;4919653;29;20036;-90
2021/03/18 05:06:46;;;;;;;61.97;25.33;;;1.90;92.60;;;;;;4919399;29;20059;-89
2021/03/18 05:09:12;;;;;;;57.35;23.92;;;1.90;92.70;;;;;;4921392;29;20023;-89
2021/03/18 05:11:38;;;;;;;58.20;24.27;;;1.90;92.50;;;;;;4922667;29;20032;-89
2021/03/18 05:14:07;;;;;;;57.45;22.77;;;2.00;92.60;;;;;;4938868;29;20518;-89
2021/03/18 05:16:34;;;;;;;53.20;21.20;;;2.00;92.50;;;;;;4920875;29;20032;-89
2021/03/18 05:19:00;;;;;;;56.60;21.75;;;2.00;92.60;;;;;;4923027;29;20118;-89
2021/03/18 05:21:26;;;;;;;59.35;20.63;;;2.00;92.60;;;;;;4923806;29;20055;-89
2021/03/18 05:23:52;;;;;;;53.85;20.55;;;2.00;92.60;;;;;;4923345;29;20028;-89
2021/03/18 05:26:18;;;;;;;63.80;21.30;;;2.10;92.50;;;;;;4940386;29;20459;-90
2021/03/18 05:28:43;;;;;;;55.42;19.15;;;2.10;92.80;;;;;;4923733;29;20027;-89
2021/03/18 05:31:09;;;;;;;58.50;17.95;;;2.20;92.70;;;;;;4922859;29;20186;-89
2021/03/18 05:33:35;;;;;;;64.82;19.48;;;2.20;92.50;;;;;;4922724;29;20067;-90
2021/03/18 05:36:01;;;;;;;56.30;17.73;;;2.30;92.30;;;;;;4922581;29;20070;-89
2021/03/18 05:38:26;;;;;;;62.72;16.73;;;2.20;92.20;;;;;;4922381;29;20441;-89
2021/03/18 05:40:56;;;;;;;50.63;16.33;;;2.30;92.10;;;;;;4912236;29;20144;-88
2021/03/18 05:43:24;;;;;;;44.00;15.20;;;2.30;92.20;;;;;;4903752;29;20032;-89
2021/03/18 05:45:50;;;;;;;44.15;17.63;;;2.20;92.20;;;;;;4920574;29;20043;-89
2021/03/18 05:48:18;;;;;;;43.53;16.08;;;2.20;92.10;;;;;;4904223;29;20040;-91
2021/03/18 05:50:45;;;;;;;49.17;17.55;;;2.20;92.20;;;;;;4920188;29;20035;-89
2021/03/18 05:53:11;;;;;;;45.20;15.93;;;2.30;92.30;;;;;;4903537;29;20099;-89
2021/03/18 05:55:37;;;;;;;35.38;15.35;;;2.30;92.30;;;;;;4903714;29;20075;-89
2021/03/18 05:58:03;;;;;;;38.72;17.70;;;2.30;92.20;;;;;;4903377;29;20036;-89
2021/03/18 06:00:31;;;;;;;37.42;15.45;;;2.40;92.20;;;;;;4903474;29;20039;-89
2021/03/18 06:02:57;;;;;;;38.42;15.82;;;2.30;92.10;;;;;;4920096;29;20372;-89
2021/03/18 06:05:23;;;;;;;57.35;18.08;;;2.40;92.20;;;;;;4902564;29;20028;-89
2021/03/18 06:07:50;;;;;;;41.95;18.92;;;2.40;92.10;;;;;;4919940;29;20522;-89
2021/03/18 06:10:24;;;;;;;48.88;20.00;;;2.30;92.00;;;;;;4919680;29;20464;-89
2021/03/18 06:12:58;;;;;;;41.28;18.52;;;2.30;92.10;;;;;;4902792;29;20047;-89
2021/03/18 06:15:24;;;;;;;44.97;18.90;;;2.30;92.20;;;;;;4920532;29;20028;-88
2021/03/18 06:17:53;;;;;;;45.70;19.15;;;2.30;92.30;;;;;;4902522;29;20036;-88
2021/03/18 06:20:29;;;;;;;46.42;18.83;;;2.30;92.10;;;;;;4902503;29;20035;-89
2021/03/18 06:22:56;;;;;;;38.28;18.10;;;2.30;92.20;;;;;;4887853;29;20044;-89
2021/03/18 06:25:31;;;;;;;52.42;18.05;;;2.40;92.20;;;;;;4902916;29;20060;-89
2021/03/18 06:28:12;;;;;;;38.35;18.38;;;2.50;92.00;;;;;;4902745;29;20028;-89
2021/03/18 06:30:40;;;;;;;37.97;16.48;;;2.50;91.90;;;;;;4900997;29;20039;-88
2021/03/18 06:33:26;;;;;;;37.05;17.45;;;2.50;92.00;;;;;;4902615;29;20033;-89
2021/03/18 06:35:53;;;;;;;41.92;15.85;;;2.50;91.80;;;;;;4902555;29;20063;-89
2021/03/18 06:38:30;;;;;;;46.25;18.85;;;2.60;91.90;;;;;;4903108;29;20515;-89
2021/03/18 06:40:57;;;;;;;36.40;16.52;;;2.60;91.60;;;;;;4901608;29;20120;-88
2021/03/18 06:43:42;;;;;;;29.17;17.50;;;2.60;91.60;;;;;;4901804;29;20487;-88
2021/03/18 06:46:22;;;;;;;40.33;15.70;;;2.50;91.40;;;;;;4918794;29;20379;-88
2021/03/18 06:48:49;;;;;;;44.25;14.85;;;2.50;91.40;;;;;;4901898;29;20032;-88
2021/03/18 06:51:21;;;;;;;34.97;16.75;;;2.60;91.90;;;;;;4901628;29;20123;-88
2021/03/18 06:53:48;;;;;;;35.50;14.27;;;2.70;91.50;;;;;;4902028;29;20127;-88
2021/03/18 06:56:27;;;;;;;34.05;13.75;;;2.70;91.60;;;;;;4901847;29;20032;-88
2021/03/18 06:58:54;;;;;;;32.58;13.43;;;2.80;91.50;;;;;;4902679;29;20024;-88
2021/03/18 07:01:30;;;;;;;38.45;16.27;;;2.90;91.70;;;;;;4918153;29;20035;-89
2021/03/18 07:04:05;;;;;;;35.15;16.23;;;3.00;91.30;;;;;;4902499;29;20036;-89
2021/03/18 07:06:32;;;;;;;;;;;3.10;91.40;;;;;;4919407;29;20052;-88
2021/03/18 07:09:08;;;;;;;32.83;15.05;;;3.10;91.10;;;;;;4901723;29;19907;-88
2021/03/18 07:11:47;;;;;;;47.15;16.35;;;3.20;91.20;;;;;;4918434;29;20098;-88
2021/03/18 07:14:13;;;;;;;27.77;13.80;;;3.20;91.00;;;;;;4918318;29;20488;-90
2021/03/18 07:16:47;;;;;;;32.75;15.00;;;3.20;91.20;;;;;;4901656;29;20123;-89
2021/03/18 07:19:29;;;;;;;37.65;15.82;;;3.20;91.10;;;;;;4902417;29;20039;-89
2021/03/18 07:21:57;;;;;;;31.25;15.10;;;3.20;90.60;;;;;;4918866;29;20071;-89
2021/03/18 07:24:34;;;;;;;34.25;15.23;;;3.10;90.80;;;;;;4901397;29;20035;-88
2021/03/18 07:27:15;;;;;;;30.83;13.32;;;3.20;91.10;;;;;;4901541;29;20035;-88
2021/03/18 07:29:47;;;;;;;40.15;15.23;;;3.10;90.70;;;;;;4901849;29;20064;-88
2021/03/18 07:32:14;;;;;;;37.30;16.80;;;3.10;90.80;;;;;;4901078;29;20491;-89
2021/03/18 07:34:41;;;;;;;31.98;15.95;;;3.00;90.40;;;;;;4901079;29;20028;-88
2021/03/18 07:37:09;;;;;;;30.48;14.05;;;2.90;90.60;;;;;;4901103;29;20055;-88
2021/03/18 07:39:36;;;;;;;32.88;15.65;;;3.00;91.00;;;;;;4918319;29;20039;-88
2021/03/18 07:42:02;;;;;;;38.35;14.05;;;3.00;90.80;;;;;;4900353;29;20063;-89
2021/03/18 07:44:28;;;;;;;45.65;18.25;;;3.00;90.70;;;;;;4917990;29;20482;-89
2021/03/18 07:46:56;;;;;;;22.60;13.73;;;3.10;90.90;;;;;;4900787;29;20112;-89
2021/03/18 07:49:28;;;;;;;26.77;13.68;;;3.10;90.80;;;;;;4900821;29;20411;-90
2021/03/18 07:52:01;;;;;;;40.20;14.73;;;3.10;90.60;;;;;;4900894;29;20032;-89
2021/03/18 07:54:28;;;;;;;27.98;14.00;;;3.20;91.00;;;;;;4901849;29;20075;-90
2021/03/18 07:56:55;;;;;;;24.73;14.35;;;3.30;91.00;;;;;;4900511;29;20035;-90
2021/03/18 07:59:28;;;;;;;26.40;13.23;;;3.40;90.90;;;;;;4900589;29;20084;-89
2021/03/18 08:02:09;;;;;;;36.40;14.27;;;3.40;90.90;;;;;;4900589;29;20385;-89
2021/03/18 08:04:43;;;;;;;24.13;12.38;;;3.50;91.40;;;;;;4917687;29;20387;-89
2021/03/18 08:07:09;;;;;;;23.25;13.05;;;3.70;91.20;;;;;;4901068;29;20028;-89
2021/03/18 08:09:34;;;;;;;35.00;15.63;;;3.80;91.00;;;;;;4900757;29;20362;-89
2021/03/18 08:12:00;;;;;;;33.42;15.35;;;3.80;89.60;;;;;;4917491;29;20051;-89
2021/03/18 08:14:26;;;;;;;34.90;15.32;;;3.80;88.80;;;;;;4900810;29;20032;-89
2021/03/18 08:16:52;;;;;;;35.67;14.23;;;3.70;89.90;;;;;;4900634;29;20059;-89
2021/03/18 08:19:20;;;;;;;31.10;12.48;;;3.80;89.90;;;;;;4917489;29;20058;-89
2021/03/18 08:21:51;;;;;;;24.35;13.50;;;3.90;90.60;;;;;;4901027;29;20039;-89
2021/03/18 08:24:21;;;;;;;31.83;14.57;;;4.10;90.20;;;;;;4900354;29;20039;-90
2021/03/18 08:26:58;;;;;;;40.42;15.18;;;4.20;89.60;;;;;;4915907;29;20048;-89
2021/03/18 08:29:37;;;;;;;26.95;11.30;;;4.20;87.60;;;;;;4900531;29;20114;-89
2021/03/18 08:32:09;;;;;;;19.33;11.70;;;4.20;89.10;;;;;;4901044;29;20043;-88
2021/03/18 08:35:02;;;;;;;29.38;12.25;;;4.30;90.00;;;;;;4900901;29;20031;-89
2021/03/18 08:37:37;;;;;;;29.45;13.82;;;4.40;87.90;;;;;;4900441;29;20543;-89
2021/03/18 08:40:26;;;;;;;33.22;13.35;;;4.50;88.00;;;;;;4919138;29;20083;-89
2021/03/18 08:42:59;;;;;;;23.20;12.55;;;4.60;88.90;;;;;;4919399;29;20031;-89
2021/03/18 08:45:25;;;;;;;31.63;14.05;;;4.70;89.10;;;;;;4919164;29;20027;-89
2021/03/18 08:47:54;;;;;;;33.20;13.82;;;4.80;88.50;;;;;;4936283;29;20535;-89
2021/03/18 08:50:29;;;;;;;33.35;13.93;;;4.90;88.40;;;;;;4919558;29;20063;-89
2021/03/18 08:52:56;;;;;;;39.70;16.23;;;4.90;86.00;;;;;;4919037;29;20032;-89
2021/03/18 08:55:45;;;;;;;40.15;13.80;;;4.90;85.40;;;;;;4924442;29;20518;-89
2021/03/18 08:58:12;;;;;;;28.00;13.80;;;4.90;83.90;;;;;;4924620;29;20036;-89
2021/03/18 09:00:38;;;;;;;35.47;13.60;;;4.90;85.60;;;;;;4922916;29;20032;-89
2021/03/18 09:03:23;;;;;;;30.13;13.60;;;4.90;85.10;;;;;;4924059;29;20031;-89
2021/03/18 09:05:57;;;;;;;30.70;12.57;;;5.00;84.40;;;;;;4922565;29;20475;-89
2021/03/18 09:08:26;;;;;;;25.83;12.02;;;4.90;82.60;;;;;;4939304;29;20091;-89
2021/03/18 09:10:55;;;;;;;21.00;11.25;;;5.00;85.10;;;;;;4939856;29;20471;-89
2021/03/18 09:13:24;;;;;;;26.65;12.07;;;5.10;85.10;;;;;;4939892;29;20075;-90
2021/03/18 09:15:56;;;;;;;28.75;12.57;;;5.20;84.60;;;;;;4923473;29;20032;-90
2021/03/18 09:18:33;;;;;;;23.13;12.40;;;5.20;83.60;;;;;;4907144;29;20425;-89
2021/03/18 09:21:10;;;;;;;32.25;14.20;;;5.10;84.20;;;;;;4922277;29;20055;-89
2021/03/18 09:23:39;;;;;;;30.98;13.48;;;5.20;83.00;;;;;;4899871;29;20040;-90
2021/03/18 09:26:11;;;;;;;26.95;13.52;;;5.10;83.40;;;;;;4907231;29;20034;-89
2021/03/18 09:28:49;;;;;;;38.65;13.10;;;5.20;84.40;;;;;;4922464;29;20047;-89
2021/03/18 09:31:22;;;;;;;34.65;13.82;;;5.30;84.20;;;;;;4923000;29;20471;-89
2021/03/18 09:33:52;;;;;;;40.05;15.38;;;5.30;83.00;;;;;;4922181;29;20558;-89
2021/03/18 09:36:27;;;;;;;28.63;13.93;;;5.40;83.30;;;;;;4921466;29;20479;-89
2021/03/18 09:39:15;;;;;;;40.15;14.80;;;5.40;79.80;;;;;;4922357;29;20086;-89
2021/03/18 09:42:05;;;;;;;35.97;14.80;;;5.30;80.80;;;;;;4939414;29;20095;-89
2021/03/18 09:44:32;;;;;;;38.92;16.15;;;5.20;80.30;;;;;;4905438;29;20094;-89
2021/03/18 09:47:04;;;;;;;34.55;13.85;;;5.10;80.60;;;;;;4921116;29;20040;-89
2021/03/18 09:49:39;;;;;;;35.63;15.93;;;5.20;81.50;;;;;;4938389;29;20091;-88
2021/03/18 09:52:14;;;;;;;37.85;15.02;;;5.20;81.00;;;;;;4921240;29;20039;-88
2021/03/18 09:54:46;;;;;;;33.97;14.18;;;5.10;80.40;;;;;;4937094;29;20040;-89
2021/03/18 09:57:14;;;;;;;38.67;14.73;;;5.10;81.00;;;;;;4920965;29;20028;-88
2021/03/18 09:59:43;;;;;;;32.70;16.10;;;5.10;81.20;;;;;;4921149;29;20036;-89
2021/03/18 10:02:15;;;;;;;37.53;15.48;;;5.10;80.80;;;;;;4905971;29;20124;-89
2021/03/18 10:04:44;;;;;;;29.25;14.27;;;5.10;80.90;;;;;;4905023;29;20499;-88
2021/03/18 10:07:12;;;;;;;48.13;14.93;;;5.10;80.40;;;;;;4921439;29;20040;-89
2021/03/18 10:09:45;;;;;;;28.63;13.55;;;5.00;80.20;;;;;;4920428;29;20119;-88
2021/03/18 10:12:13;;;;;;;31.40;13.60;;;5.10;80.80;;;;;;4918954;29;20354;-89
2021/03/18 10:14:53;;;;;;;50.65;16.67;;;5.20;80.60;;;;;;4907327;29;20459;-88
2021/03/18 10:17:29;;;;;;;33.65;13.90;;;5.30;80.90;;;;;;4952935;29;20039;-88
2021/03/18 10:20:28;;;;;;;37.85;14.32;;;5.40;81.80;;;;;;4938160;29;20027;-88
2021/03/18 10:23:06;;;;;;;38.05;14.50;;;5.50;80.60;;;;;;4936153;29;20035;-89
2021/03/18 10:25:38;;;;;;;35.83;14.13;;;5.60;80.40;;;;;;4918842;29;20074;-91
2021/03/18 10:28:11;;;;;;;29.48;12.45;;;5.70;80.80;;;;;;4928291;28;20035;-89
2021/03/18 10:30:53;;;;;;;27.98;13.65;;;5.70;79.70;;;;;;4924003;29;20062;-90
2021/03/18 10:33:26;;;;;;;25.92;12.07;;;5.70;77.90;;;;;;4957060;28;20047;-89
2021/03/18 10:35:55;;;;;;;31.30;13.30;;;5.80;79.70;;;;;;4953874;28;20051;-91
2021/03/18 10:38:42;;;;;;;30.52;11.30;;;5.80;79.70;;;;;;4942502;29;20032;-87
2021/03/18 10:41:17;;;;;;;34.75;12.73;;;5.90;79.10;;;;;;4945093;28;20048;-86
2021/03/18 10:43:48;;;;;;;23.73;12.25;;;6.00;80.50;;;;;;4938314;29;20047;-86
2021/03/18 10:46:17;;;;;;;25.35;12.70;;;6.20;79.10;;;;;;4942156;29;20031;-86
2021/03/18 10:48:50;;;;;;;31.58;12.52;;;6.30;79.10;;;;;;4946247;29;20107;-85
2021/03/18 10:51:20;;;;;;;27.10;12.40;;;6.40;79.00;;;;;;4936382;29;20051;-85
2021/03/18 10:53:50;;;;;;;35.00;11.65;;;6.50;79.80;;;;;;4947059;29;20059;-86
2021/03/18 10:56:34;;;;;;;39.75;12.20;;;6.70;76.80;;;;;;4927301;29;20531;-86
2021/03/18 10:59:14;;;;;;;30.90;12.63;;;6.70;74.80;;;;;;4909788;29;20090;-86
2021/03/18 11:02:03;;;;;;;27.85;10.88;;;6.70;74.40;;;;;;4923735;29;20042;-86
2021/03/18 11:05:09;;;;;;;25.48;10.73;;;6.70;75.30;;;;;;4924198;29;20043;-86
2021/03/18 11:07:35;;;;;;;;;;;6.70;74.40;;;;;;4938371;29;20102;-85
2021/03/18 11:10:18;;;;;;;30.10;10.25;;;6.70;72.90;;;;;;4936675;29;19949;-86
2021/03/18 11:13:01;;;;;;;24.13;10.70;;;6.80;75.30;;;;;;4951721;29;20451;-88
2021/03/18 11:15:52;;;;;;;24.15;9.45;;;6.80;74.00;;;;;;4950494;28;20038;-85
2021/03/18 11:18:30;;;;;;;17.08;9.07;;;6.80;73.80;;;;;;4950665;29;20115;-86
2021/03/18 11:21:24;;;;;;;18.60;8.93;;;6.80;75.40;;;;;;4946829;29;20031;-87
2021/03/18 11:23:54;;;;;;;15.07;8.60;;;7.00;75.80;;;;;;4925395;29;20055;-86
2021/03/18 11:26:26;;;;;;;16.90;8.10;;;7.20;75.50;;;;;;4942658;28;20547;-87
2021/03/18 11:29:12;;;;;;;17.75;8.68;;;7.30;73.50;;;;;;4918105;29;20103;-87
2021/03/18 11:31:41;;;;;;;19.60;8.55;;;7.50;74.80;;;;;;4935184;29;20035;-87
2021/03/18 11:34:27;;;;;;;15.30;7.68;;;7.50;73.20;;;;;;4950176;29;20047;-85
2021/03/18 11:37:12;;;;;;;17.40;8.32;;;7.50;71.80;;;;;;4946623;29;20030;-86
2021/03/18 11:39:43;;;;;;;19.20;7.43;;;7.50;74.00;;;;;;4918715;29;20475;-86
2021/03/18 11:42:08;;;;;;;24.33;7.57;;;7.80;74.90;;;;;;4951705;29;20055;-87
2021/03/18 11:44:42;;;;;;;16.52;7.30;;;8.00;75.00;;;;;;4953804;29;20382;-90
2021/03/18 11:47:28;;;;;;;11.13;6.57;;;8.40;76.90;;;;;;4955703;28;20114;-88
2021/03/18 11:49:54;;;;;;;11.60;7.90;;;8.90;75.70;;;;;;4953698;28;20114;-87
2021/03/18 11:52:34;;;;;;;10.20;5.72;;;9.20;76.30;;;;;;4956885;28;20042;-88
2021/03/18 11:55:11;;;;;;;13.45;6.28;;;9.60;75.80;;;;;;4953806;28;20039;-88
2021/03/18 11:57:45;;;;;;;11.52;6.75;;;9.50;70.50;;;;;;4944960;28;20525;-88
2021/03/18 12:00:13;;;;;;;13.30;6.13;;;9.40;74.00;;;;;;4946696;29;20127;-88
2021/03/18 12:02:44;;;;;;;14.63;7.38;;;9.70;75.70;;;;;;4943820;29;20186;-87
2021/03/18 12:05:11;;;;;;;13.43;6.32;;;9.90;72.80;;;;;;4945112;28;20035;-87
2021/03/18 12:07:45;;;;;;;17.33;7.40;;;9.90;71.90;;;;;;4946706;29;20378;-87
2021/03/18 12:10:26;;;;;;;20.02;8.10;;;9.90;70.20;;;;;;4927988;29;20090;-86
2021/03/18 12:12:54;;;;;;;14.95;6.93;;;9.70;69.10;;;;;;4946800;29;20043;-87
2021/03/18 12:15:26;;;;;;;14.80;6.68;;;9.60;67.90;;;;;;4941721;28;20175;-88
2021/03/18 12:17:51;;;;;;;12.75;6.88;;;9.40;69.30;;;;;;4944042;29;20363;-87
2021/03/18 12:20:21;;;;;;;19.05;6.43;;;9.30;71.40;;;;;;4926868;29;20031;-87
2021/03/18 12:22:48;;;;;;;23.20;8.32;;;9.40;71.60;;;;;;4930102;29;20467;-86
2021/03/18 12:25:17;;;;;;;22.45;8.85;;;9.50;68.00;;;;;;4944072;28;20024;-87
2021/03/18 12:27:44;;;;;;;12.27;6.75;;;9.20;66.40;;;;;;4942929;29;20475;-85
2021/03/18 12:30:15;;;;;;;22.10;9.82;;;9.00;68.00;;;;;;4940724;29;20203;-86
2021/03/18 12:32:43;;;;;;;31.08;11.00;;;8.90;65.20;;;;;;4947575;29;20122;-86
2021/03/18 12:35:11;;;;;;;18.13;8.10;;;8.40;63.40;;;;;;4938783;29;20035;-85
2021/03/18 12:37:37;;;;;;;22.75;8.70;;;8.10;65.30;;;;;;4944590;28;20035;-85
2021/03/18 12:40:07;;;;;;;27.42;9.48;;;7.90;65.50;;;;;;4941383;28;20032;-85
2021/03/18 12:42:35;;;;;;;17.23;8.20;;;7.80;65.70;;;;;;4927403;29;20027;-85
2021/03/18 12:45:00;;;;;;;21.60;9.10;;;7.70;65.90;;;;;;4930967;29;20078;-85
2021/03/18 12:47:27;;;;;;;13.35;7.45;;;7.70;66.80;;;;;;4930854;29;20035;-85
2021/03/18 12:49:54;;;;;;;18.90;7.30;;;7.80;68.10;;;;;;4951358;28;20422;-85
2021/03/18 12:52:21;;;;;;;27.65;9.73;;;7.90;66.60;;;;;;4920025;29;20047;-86
2021/03/18 12:54:46;;;;;;;29.05;9.95;;;7.80;65.80;;;;;;4926982;29;20047;-86
2021/03/18 12:57:13;;;;;;;13.27;7.35;;;7.80;66.50;;;;;;4929054;29;20467;-85
2021/03/18 12:59:40;;;;;;;27.10;9.52;;;7.70;65.70;;;;;;4929990;29;20067;-86